createdAt,value
2019-04-06T00:02:19.316Z,8.95
2019-04-06T00:05:26.288Z,8.95
2019-04-06T00:08:32.860Z,8.91
2019-04-06T00:11:40.573Z,8.82
2019-04-06T00:14:47.595Z,8.82
2019-04-06T00:17:54.663Z,8.81
2019-04-06T00:21:02.265Z,8.81
2019-04-06T00:24:09.292Z,8.78
2019-04-06T00:27:16.328Z,8.76
2019-04-06T00:30:24.554Z,8.66
2019-04-06T00:33:33.406Z,8.30
2019-04-06T00:36:41.346Z,8.40
2019-04-06T00:39:48.850Z,8.46
2019-04-06T00:42:55.875Z,8.30
2019-04-06T00:46:02.945Z,8.31
2019-04-06T00:49:10.121Z,8.27
2019-04-06T00:52:17.288Z,8.20
2019-04-06T00:55:24.402Z,7.94
2019-04-06T00:58:32.600Z,7.75
2019-04-06T01:01:40.253Z,7.79
2019-04-06T01:04:47.721Z,7.97
2019-04-06T01:07:56.029Z,7.84
2019-04-06T01:11:03.568Z,7.82
2019-04-06T01:14:11.177Z,7.93
2019-04-06T01:17:18.683Z,7.79
2019-04-06T01:20:26.303Z,7.91
2019-04-06T01:23:32.822Z,7.97
2019-04-06T01:26:40.292Z,7.91
2019-04-06T01:29:47.517Z,7.83
2019-04-06T01:32:55.295Z,7.71
2019-04-06T01:36:02.390Z,7.86
2019-04-06T01:39:09.510Z,7.58
2019-04-06T01:42:16.807Z,7.58
2019-04-06T01:45:24.380Z,7.36
2019-04-06T01:48:31.831Z,7.49
2019-04-06T01:51:39.348Z,7.49
2019-04-06T01:54:46.828Z,7.59
2019-04-06T01:57:54.461Z,7.80
2019-04-06T02:01:16.155Z,7.76
2019-04-06T02:04:23.397Z,7.93
2019-04-06T02:07:31.145Z,7.91
2019-04-06T02:10:38.962Z,8.02
2019-04-06T02:13:45.977Z,8.09
2019-04-06T02:16:53.310Z,8.10
2019-04-06T02:20:00.354Z,8.21
2019-04-06T02:23:06.835Z,8.12
2019-04-06T02:26:14.265Z,8.23
2019-04-06T02:29:21.304Z,8.16
2019-04-06T02:32:30.342Z,8.36
2019-04-06T02:35:48.686Z,8.39
2019-04-06T02:39:00.303Z,8.34
2019-04-06T02:42:16.490Z,8.22
2019-04-06T02:45:23.841Z,8.36
2019-04-06T02:48:30.994Z,8.23
2019-04-06T02:51:38.470Z,8.30
2019-04-06T02:54:45.512Z,8.13
2019-04-06T02:57:52.682Z,8.18
2019-04-06T03:01:00.916Z,8.18
2019-04-06T03:04:08.678Z,8.34
2019-04-06T03:07:15.740Z,8.36
2019-04-06T03:10:24.869Z,8.32
2019-04-06T03:13:32.266Z,8.42
2019-04-06T03:16:38.968Z,8.47
2019-04-06T03:19:46.662Z,8.54
2019-04-06T03:22:55.758Z,8.55
2019-04-06T03:26:03.359Z,8.51
2019-04-06T03:29:10.554Z,8.56
2019-04-06T03:32:17.971Z,8.08
2019-04-06T03:35:25.380Z,8.08
2019-04-06T03:38:32.626Z,8.28
2019-04-06T03:41:40.725Z,8.38
2019-04-06T03:44:47.920Z,8.45
2019-04-06T03:47:55.105Z,8.21
2019-04-06T03:51:03.458Z,8.31
2019-04-06T03:54:10.667Z,8.36
2019-04-06T03:57:17.841Z,8.23
2019-04-06T04:00:25.637Z,8.35
2019-04-06T04:03:33.305Z,8.37
2019-04-06T04:06:39.864Z,8.33
2019-04-06T04:09:47.465Z,8.13
2019-04-06T04:12:53.938Z,8.23
2019-04-06T04:16:00.963Z,8.21
2019-04-06T04:19:08.268Z,8.15
2019-04-06T04:22:16.309Z,8.25
2019-04-06T04:25:23.312Z,8.27
2019-04-06T04:28:30.818Z,8.30
2019-04-06T04:31:38.321Z,8.14
2019-04-06T04:34:46.445Z,7.83
2019-04-06T04:37:53.637Z,7.84
2019-04-06T04:41:01.347Z,7.75
2019-04-06T04:44:08.634Z,7.75
2019-04-06T04:47:15.904Z,7.79
2019-04-06T04:50:23.354Z,7.86
2019-04-06T04:53:31.741Z,7.86
2019-04-06T04:56:39.045Z,7.73
2019-04-06T04:59:48.522Z,7.68
2019-04-06T05:02:55.827Z,7.49
2019-04-06T05:06:03.316Z,7.64
2019-04-06T05:09:10.945Z,7.63
2019-04-06T05:12:18.624Z,7.80
2019-04-06T05:15:57.944Z,7.72
2019-04-06T05:19:06.163Z,7.87
2019-04-06T05:22:13.436Z,7.89
2019-04-06T05:25:20.943Z,7.89
2019-04-06T05:28:28.739Z,7.78
2019-04-06T05:31:36.656Z,7.74
2019-04-06T05:34:44.324Z,7.53
2019-04-06T05:37:51.721Z,7.53
2019-04-06T05:41:00.962Z,7.82
2019-04-06T05:44:08.773Z,7.97
2019-04-06T05:47:16.251Z,7.44
2019-04-06T05:50:24.947Z,7.44
2019-04-06T05:53:32.286Z,7.54
2019-04-06T05:56:39.266Z,7.56
2019-04-06T05:59:46.941Z,7.73
2019-04-06T06:02:54.361Z,7.87
2019-04-06T06:06:02.534Z,7.98
2019-04-06T06:09:11.719Z,7.98
2019-04-06T06:12:20.334Z,8.24
2019-04-06T06:15:28.404Z,8.50
2019-04-06T06:18:36.998Z,8.50
2019-04-06T06:21:44.269Z,8.28
2019-04-06T06:24:51.686Z,8.19
2019-04-06T06:27:59.213Z,8.92
2019-04-06T06:31:06.904Z,8.58
2019-04-06T06:34:14.335Z,8.43
2019-04-06T06:37:22.442Z,8.95
2019-04-06T06:40:29.739Z,9.77
2019-04-06T06:43:37.572Z,10.06
2019-04-06T06:46:44.971Z,10.66
2019-04-06T06:49:52.341Z,10.94
2019-04-06T06:52:59.702Z,11.08
2019-04-06T06:56:06.993Z,11.62
2019-04-06T06:59:14.518Z,11.56
2019-04-06T07:02:22.332Z,11.87
2019-04-06T07:05:29.719Z,11.87
2019-04-06T07:12:00.356Z,12.43
2019-04-06T07:15:09.879Z,11.90
2019-04-06T07:18:17.425Z,12.28
2019-04-06T07:21:25.598Z,12.69
2019-04-06T07:24:33.022Z,13.35
2019-04-06T07:27:40.713Z,13.79
2019-04-06T07:30:47.640Z,14.29
2019-04-06T07:33:55.107Z,14.53
2019-04-06T07:37:02.476Z,15.09
2019-04-06T07:40:11.346Z,15.54
2019-04-06T07:43:17.845Z,15.08
2019-04-06T07:46:25.331Z,14.45
2019-04-06T07:49:33.357Z,15.18
2019-04-06T07:52:41.007Z,13.99
2019-04-06T07:55:48.290Z,12.48
2019-04-06T07:58:57.778Z,11.91
2019-04-06T08:02:05.538Z,11.98
2019-04-06T08:05:13.008Z,12.60
2019-04-06T08:08:20.455Z,12.60
2019-04-06T08:11:27.608Z,12.94
2019-04-06T08:14:34.719Z,13.76
2019-04-06T08:17:42.359Z,13.39
2019-04-06T08:20:49.883Z,14.14
2019-04-06T08:23:57.304Z,13.59
2019-04-06T08:27:04.504Z,14.13
2019-04-06T08:30:11.497Z,14.79
2019-04-06T08:33:18.683Z,15.00
2019-04-06T08:36:26.254Z,14.87
2019-04-06T08:39:34.050Z,15.33
2019-04-06T08:42:42.160Z,16.44
2019-04-06T08:45:49.375Z,16.44
2019-04-06T08:48:57.516Z,15.80
2019-04-06T08:52:04.936Z,16.54
2019-04-06T08:55:15.285Z,16.54
2019-04-06T08:58:22.859Z,16.13
2019-04-06T09:01:31.324Z,15.76
2019-04-06T09:04:38.903Z,16.12
2019-04-06T09:07:46.270Z,16.12
2019-04-06T09:10:53.773Z,16.92
2019-04-06T09:14:00.989Z,16.18
2019-04-06T09:17:08.403Z,17.35
2019-04-06T09:20:17.339Z,17.49
2019-04-06T09:23:24.003Z,17.77
2019-04-06T09:26:31.513Z,17.54
2019-04-06T09:29:39.679Z,16.04
2019-04-06T09:32:47.975Z,17.35
2019-04-06T09:35:55.516Z,17.70
2019-04-06T09:39:03.071Z,18.52
2019-04-06T09:42:11.306Z,17.34
2019-04-06T09:45:37.549Z,17.38
2019-04-06T09:48:59.287Z,18.36
2019-04-06T09:52:08.323Z,18.36
2019-04-06T09:55:27.710Z,18.01
2019-04-06T09:58:37.286Z,18.01
2019-04-06T10:02:02.357Z,17.77
2019-04-06T10:05:20.821Z,18.47
2019-04-06T10:08:41.073Z,17.60
2019-04-06T10:11:56.500Z,16.85
2019-04-06T10:15:22.386Z,17.47
2019-04-06T10:18:34.767Z,18.10
2019-04-06T10:21:49.075Z,17.70
2019-04-06T10:25:05.109Z,19.28
2019-04-06T10:28:20.727Z,18.48
2019-04-06T10:31:29.692Z,19.25
2019-04-06T10:34:41.961Z,17.86
2019-04-06T10:37:56.903Z,19.11
2019-04-06T10:41:18.345Z,19.14
2019-04-06T10:44:35.431Z,19.10
2019-04-06T10:47:45.464Z,18.24
2019-04-06T10:51:09.860Z,18.28
2019-04-06T10:54:35.067Z,18.50
2019-04-06T10:57:46.676Z,20.18
2019-04-06T11:01:03.861Z,19.79
2019-04-06T11:04:22.665Z,19.53
2019-04-06T11:07:32.935Z,19.45
2019-04-06T11:10:45.511Z,19.92
2019-04-06T11:14:04.777Z,20.38
2019-04-06T11:17:30.745Z,20.01
2019-04-06T11:20:49.496Z,20.13
2019-04-06T11:24:14.770Z,19.26
2019-04-06T11:27:24.249Z,19.73
2019-04-06T11:30:49.323Z,19.73
2019-04-06T11:34:14.263Z,19.67
2019-04-06T11:37:32.758Z,18.78
2019-04-06T11:40:49.557Z,19.61
2019-04-06T11:43:58.595Z,19.44
2019-04-06T11:47:24.312Z,18.84
2019-04-06T11:50:31.496Z,19.42
2019-04-06T11:53:43.291Z,19.42
2019-04-06T11:56:54.389Z,19.97
2019-04-06T12:00:26.377Z,19.72
2019-04-06T12:03:46.574Z,20.98
2019-04-06T12:07:11.404Z,18.68
2019-04-06T12:10:37.256Z,18.68
2019-04-06T12:14:03.404Z,19.16
2019-04-06T12:17:30.357Z,20.51
2019-04-06T12:20:42.593Z,20.38
2019-04-06T12:24:08.634Z,18.96
2019-04-06T12:27:17.503Z,18.18
2019-04-06T12:30:38.599Z,18.79
2019-04-06T12:34:02.756Z,18.79
2019-04-06T12:37:30.547Z,18.93
2019-04-06T12:40:41.813Z,18.09
2019-04-06T12:43:55.207Z,18.02
2019-04-06T12:47:18.210Z,19.01
2019-04-06T12:50:27.891Z,18.43
2019-04-06T12:53:36.776Z,17.43
2019-04-06T12:57:02.032Z,17.62
2019-04-06T13:00:17.823Z,17.67
2019-04-06T13:03:32.639Z,17.58
2019-04-06T13:06:40.476Z,17.66
2019-04-06T13:10:03.736Z,18.16
2019-04-06T13:13:13.602Z,18.16
2019-04-06T13:16:26.623Z,18.28
2019-04-06T13:19:39.620Z,18.28
2019-04-06T13:23:03.743Z,18.82
2019-04-06T13:26:28.627Z,18.57
2019-04-06T13:29:50.424Z,18.66
2019-04-06T13:33:11.952Z,18.34
2019-04-06T13:36:24.248Z,18.77
2019-04-06T13:39:42.266Z,18.69
2019-04-06T13:43:05.749Z,19.17
2019-04-06T13:46:26.464Z,18.72
2019-04-06T13:49:38.540Z,19.58
2019-04-06T13:52:56.905Z,19.33
2019-04-06T13:56:18.290Z,18.75
2019-04-06T13:59:37.560Z,18.79
2019-04-06T14:02:58.600Z,18.76
2019-04-06T14:06:10.502Z,18.32
2019-04-06T14:09:33.454Z,18.32
2019-04-06T14:12:57.154Z,18.25
2019-04-06T14:16:07.614Z,18.45
2019-04-06T14:19:28.627Z,18.45
2019-04-06T14:22:48.781Z,19.00
2019-04-06T14:26:03.261Z,19.00
2019-04-06T14:29:21.540Z,18.33
2019-04-06T14:32:43.256Z,17.23
2019-04-06T14:35:58.693Z,17.23
2019-04-06T14:39:19.706Z,16.92
2019-04-06T14:42:45.715Z,17.06
2019-04-06T14:45:55.493Z,16.99
2019-04-06T14:49:17.218Z,17.11
2019-04-06T14:52:20.738Z,17.11
2019-04-06T14:55:31.435Z,17.65
2019-04-06T14:58:47.613Z,17.56
2019-04-06T15:02:09.597Z,17.40
2019-04-06T15:05:18.533Z,17.30
2019-04-06T15:08:44.403Z,17.19
2019-04-06T15:12:12.714Z,16.88
2019-04-06T15:15:33.427Z,17.33
2019-04-06T15:18:45.223Z,17.30
2019-04-06T15:22:12.628Z,17.15
2019-04-06T15:25:23.531Z,17.53
2019-04-06T15:28:43.266Z,17.53
2019-04-06T15:31:55.298Z,18.10
2019-04-06T15:35:05.021Z,17.98
2019-04-06T15:38:21.471Z,17.99
2019-04-06T15:41:31.473Z,17.77
2019-04-06T15:44:53.250Z,17.44
2019-04-06T15:48:00.515Z,17.38
2019-04-06T15:51:15.583Z,17.13
2019-04-06T15:54:37.025Z,17.20
2019-04-06T15:57:49.048Z,17.57
2019-04-06T16:01:11.799Z,17.93
2019-04-06T16:04:20.987Z,17.70
2019-04-06T16:07:44.963Z,17.90
2019-04-06T16:10:53.443Z,17.27
2019-04-06T16:14:20.286Z,17.02
2019-04-06T16:17:31.463Z,17.19
2019-04-06T16:20:58.441Z,17.10
2019-04-06T16:24:10.062Z,16.71
2019-04-06T16:27:24.327Z,16.56
2019-04-06T16:30:34.429Z,16.47
2019-04-06T16:33:42.312Z,16.57
2019-04-06T16:37:04.645Z,16.63
2019-04-06T16:40:16.431Z,16.41
2019-04-06T16:43:23.934Z,16.32
2019-04-06T16:46:39.958Z,16.44
2019-04-06T16:50:07.646Z,16.47
2019-04-06T16:53:33.309Z,16.50
2019-04-06T16:56:44.144Z,16.43
2019-04-06T16:59:53.413Z,16.31
2019-04-06T17:03:18.900Z,16.38
2019-04-06T17:06:32.534Z,16.18
2019-04-06T17:09:59.626Z,16.34
2019-04-06T17:13:17.764Z,16.10
2019-04-06T17:16:34.039Z,15.88
2019-04-06T17:19:42.591Z,15.81
2019-04-06T17:22:57.869Z,15.79
2019-04-06T17:26:25.617Z,15.82
2019-04-06T17:29:42.278Z,15.66
2019-04-06T17:32:52.619Z,15.68
2019-04-06T17:36:17.847Z,15.53
2019-04-06T17:39:43.570Z,15.46
2019-04-06T17:43:00.829Z,15.33
2019-04-06T17:46:10.427Z,14.96
2019-04-06T17:49:24.705Z,14.82
2019-04-06T17:52:34.856Z,14.51
2019-04-06T17:56:00.495Z,14.40
2019-04-06T17:59:17.604Z,14.26
2019-04-06T18:02:49.221Z,13.65
2019-04-06T18:06:04.543Z,13.65
2019-04-06T18:09:13.454Z,13.06
2019-04-06T18:12:30.519Z,13.06
2019-04-06T18:15:38.382Z,12.62
2019-04-06T18:18:45.103Z,12.62
2019-04-06T18:21:53.877Z,12.40
2019-04-06T18:25:02.396Z,12.22
2019-04-06T18:28:10.616Z,11.89
2019-04-06T18:31:19.145Z,11.71
2019-04-06T18:34:26.723Z,11.43
2019-04-06T18:37:40.141Z,11.35
2019-04-06T18:40:48.311Z,10.89
2019-04-06T18:43:54.709Z,10.89
2019-04-06T18:47:02.350Z,10.71
2019-04-06T18:50:10.729Z,10.59
2019-04-06T18:53:18.205Z,10.44
2019-04-06T18:56:24.843Z,10.26
2019-04-06T18:59:32.711Z,10.13
2019-04-06T19:02:40.725Z,9.99
2019-04-06T19:05:50.052Z,9.88
2019-04-06T19:08:58.790Z,9.75
2019-04-06T19:12:09.017Z,9.53
2019-04-06T19:15:22.906Z,9.26
2019-04-06T19:18:33.518Z,9.24
2019-04-06T19:21:49.008Z,9.08
2019-04-06T19:24:57.694Z,9.03
2019-04-06T19:28:06.931Z,8.95
2019-04-06T19:31:15.125Z,8.80
2019-04-06T19:34:23.910Z,8.76
2019-04-06T19:37:33.690Z,8.71
2019-04-06T19:40:41.909Z,8.58
2019-04-06T19:43:49.187Z,8.51
2019-04-06T19:46:56.288Z,8.32
2019-04-06T19:50:03.771Z,8.28
2019-04-06T19:53:11.472Z,8.18
2019-04-06T19:56:18.187Z,7.91
2019-04-06T19:59:25.378Z,7.92
2019-04-06T20:02:33.740Z,7.85
2019-04-06T20:05:41.500Z,7.82
2019-04-06T20:08:50.261Z,7.75
2019-04-06T20:12:06.110Z,7.65
2019-04-06T20:15:10.261Z,7.44
2019-04-06T20:18:18.010Z,7.41
2019-04-06T20:21:25.764Z,7.36
2019-04-06T20:24:32.983Z,7.31
2019-04-06T20:27:40.930Z,7.22
2019-04-06T20:30:48.762Z,7.21
2019-04-06T20:33:55.924Z,7.15
2019-04-06T20:37:05.345Z,7.04
2019-04-06T20:40:13.257Z,6.93
2019-04-06T20:43:21.319Z,6.89
2019-04-06T20:46:29.782Z,6.82
2019-04-06T20:49:37.384Z,6.73
2019-04-06T20:52:45.997Z,6.57
2019-04-06T20:55:53.485Z,6.57
2019-04-06T20:59:01.472Z,6.45
2019-04-06T21:02:09.577Z,6.25
2019-04-06T21:05:17.355Z,6.24
2019-04-06T21:08:24.148Z,6.24
2019-04-06T21:11:32.306Z,6.23
2019-04-06T21:14:39.762Z,6.12
2019-04-06T21:17:48.177Z,6.06
2019-04-06T21:20:56.472Z,6.00
2019-04-06T21:24:04.692Z,5.93
2019-04-06T21:27:14.279Z,5.86
2019-04-06T21:30:24.521Z,5.80
2019-04-06T21:33:32.322Z,5.73
2019-04-06T21:36:39.698Z,5.64
2019-04-06T21:39:48.302Z,5.65
2019-04-06T21:42:56.688Z,5.40
2019-04-06T21:46:04.256Z,5.40
2019-04-06T21:49:12.256Z,5.51
2019-04-06T21:52:20.330Z,5.43
2019-04-06T21:55:28.627Z,5.40
2019-04-06T21:58:36.266Z,5.25
2019-04-06T22:01:44.961Z,5.25
2019-04-06T22:04:52.123Z,5.19
2019-04-06T22:07:59.352Z,5.18
2019-04-06T22:11:06.221Z,5.16
2019-04-06T22:14:14.855Z,5.13
2019-04-06T22:17:23.238Z,5.03
2019-04-06T22:20:30.818Z,4.99
2019-04-06T22:23:43.247Z,4.97
2019-04-06T22:26:47.980Z,4.88
2019-04-06T22:29:55.535Z,4.88
2019-04-06T22:33:03.287Z,4.86
2019-04-06T22:36:10.634Z,4.75
2019-04-06T22:39:18.133Z,4.74
2019-04-06T22:42:26.085Z,4.61
2019-04-06T22:45:34.714Z,4.61
2019-04-06T22:48:43.805Z,4.64
2019-04-06T22:51:52.804Z,4.66
2019-04-06T22:55:00.691Z,4.61
2019-04-06T22:58:08.535Z,4.44
2019-04-06T23:01:18.590Z,4.44
2019-04-06T23:04:32.087Z,4.44
2019-04-06T23:07:39.480Z,4.39
2019-04-06T23:10:47.589Z,4.36
2019-04-06T23:13:55.328Z,4.31
2019-04-06T23:17:02.384Z,4.31
2019-04-06T23:20:11.302Z,4.26
2019-04-06T23:23:18.727Z,4.26
2019-04-06T23:26:26.158Z,4.22
2019-04-06T23:29:33.708Z,4.18
2019-04-06T23:32:41.115Z,4.17
2019-04-06T23:35:48.723Z,3.99
2019-04-06T23:38:56.349Z,3.99
2019-04-06T23:42:04.632Z,4.09
2019-04-06T23:45:12.871Z,4.09
2019-04-06T23:48:20.547Z,3.94
2019-04-06T23:51:27.559Z,3.85
2019-04-06T23:54:34.782Z,3.84
2019-04-06T23:57:42.923Z,3.84
